sensor_id;sensor_type;location;lat;lon;timestamp;P1;durP1;ratioP1;P2;durP2;ratioP2
40629;SDS011;26329;40.388;-3.710;2023-07-28T00:07:55;2.88;;;2.63;;
40629;SDS011;26329;40.388;-3.710;2023-07-28T00:17:56;6.70;;;2.90;;
40629;SDS011;26329;40.388;-3.710;2023-07-28T00:27:57;7.70;;;3.85;;
40629;SDS011;26329;40.388;-3.710;2023-07-28T00:37:58;8.13;;;3.35;;
40629;SDS011;26329;40.388;-3.710;2023-07-28T00:47:59;9.57;;;3.72;;
40629;SDS011;26329;40.388;-3.710;2023-07-28T00:58:01;6.53;;;3.03;;
40629;SDS011;26329;40.388;-3.710;2023-07-28T01:08:02;6.25;;;3.03;;
40629;SDS011;26329;40.388;-3.710;2023-07-28T01:18:09;7.45;;;3.45;;
40629;SDS011;26329;40.388;-3.710;2023-07-28T01:28:10;6.35;;;2.88;;
40629;SDS011;26329;40.388;-3.710;2023-07-28T01:38:12;3.55;;;2.83;;
40629;SDS011;26329;40.388;-3.710;2023-07-28T01:48:13;5.97;;;2.80;;
40629;SDS011;26329;40.388;-3.710;2023-07-28T01:58:14;4.55;;;2.50;;
40629;SDS011;26329;40.388;-3.710;2023-07-28T02:18:15;8.65;;;2.33;;
40629;SDS011;26329;40.388;-3.710;2023-07-28T02:28:16;9.32;;;2.88;;
40629;SDS011;26329;40.388;-3.710;2023-07-28T02:48:18;4.47;;;2.90;;
40629;SDS011;26329;40.388;-3.710;2023-07-28T03:08:20;5.20;;;2.90;;
40629;SDS011;26329;40.388;-3.710;2023-07-28T03:28:21;8.20;;;3.10;;
40629;SDS011;26329;40.388;-3.710;2023-07-28T03:38:22;8.03;;;3.33;;
40629;SDS011;26329;40.388;-3.710;2023-07-28T03:48:24;7.68;;;3.05;;
40629;SDS011;26329;40.388;-3.710;2023-07-28T03:58:25;7.17;;;3.17;;
40629;SDS011;26329;40.388;-3.710;2023-07-28T04:08:25;12.77;;;3.90;;
40629;SDS011;26329;40.388;-3.710;2023-07-28T04:18:26;8.03;;;3.50;;
40629;SDS011;26329;40.388;-3.710;2023-07-28T04:28:27;8.00;;;3.85;;
40629;SDS011;26329;40.388;-3.710;2023-07-28T04:38:28;11.00;;;4.20;;
40629;SDS011;26329;40.388;-3.710;2023-07-28T04:48:29;7.70;;;3.93;;
40629;SDS011;26329;40.388;-3.710;2023-07-28T04:58:29;8.63;;;3.80;;
40629;SDS011;26329;40.388;-3.710;2023-07-28T05:08:30;6.17;;;2.87;;
40629;SDS011;26329;40.388;-3.710;2023-07-28T05:18:31;6.80;;;3.07;;
40629;SDS011;26329;40.388;-3.710;2023-07-28T05:28:33;7.33;;;2.80;;
40629;SDS011;26329;40.388;-3.710;2023-07-28T05:38:34;11.88;;;3.55;;
40629;SDS011;26329;40.388;-3.710;2023-07-28T05:48:35;13.70;;;3.73;;
40629;SDS011;26329;40.388;-3.710;2023-07-28T05:58:36;16.23;;;4.00;;
40629;SDS011;26329;40.388;-3.710;2023-07-28T06:08:37;14.67;;;4.83;;
40629;SDS011;26329;40.388;-3.710;2023-07-28T06:18:37;11.77;;;3.57;;
40629;SDS011;26329;40.388;-3.710;2023-07-28T06:28:38;24.03;;;5.40;;
40629;SDS011;26329;40.388;-3.710;2023-07-28T06:38:39;10.33;;;3.60;;
40629;SDS011;26329;40.388;-3.710;2023-07-28T06:48:40;17.17;;;3.30;;
40629;SDS011;26329;40.388;-3.710;2023-07-28T06:58:40;11.73;;;4.20;;
40629;SDS011;26329;40.388;-3.710;2023-07-28T07:08:41;12.20;;;3.50;;
40629;SDS011;26329;40.388;-3.710;2023-07-28T07:18:47;19.92;;;4.38;;
40629;SDS011;26329;40.388;-3.710;2023-07-28T07:28:48;28.83;;;4.60;;
40629;SDS011;26329;40.388;-3.710;2023-07-28T07:38:49;19.50;;;4.30;;
40629;SDS011;26329;40.388;-3.710;2023-07-28T07:48:50;28.17;;;5.50;;
40629;SDS011;26329;40.388;-3.710;2023-07-28T07:58:50;25.02;;;4.28;;
40629;SDS011;26329;40.388;-3.710;2023-07-28T08:08:51;17.73;;;4.30;;
40629;SDS011;26329;40.388;-3.710;2023-07-28T08:18:53;19.63;;;3.58;;
40629;SDS011;26329;40.388;-3.710;2023-07-28T08:28:54;9.63;;;2.95;;
40629;SDS011;26329;40.388;-3.710;2023-07-28T08:38:55;14.23;;;3.10;;
40629;SDS011;26329;40.388;-3.710;2023-07-28T08:48:56;8.13;;;2.92;;
40629;SDS011;26329;40.388;-3.710;2023-07-28T08:58:57;6.68;;;2.72;;
40629;SDS011;26329;40.388;-3.710;2023-07-28T09:08:59;14.25;;;2.90;;
40629;SDS011;26329;40.388;-3.710;2023-07-28T09:19:07;15.43;;;2.92;;
40629;SDS011;26329;40.388;-3.710;2023-07-28T09:29:15;11.50;;;2.72;;
40629;SDS011;26329;40.388;-3.710;2023-07-28T09:39:20;9.00;;;2.65;;
40629;SDS011;26329;40.388;-3.710;2023-07-28T09:49:27;7.45;;;2.50;;
40629;SDS011;26329;40.388;-3.710;2023-07-28T09:59:32;4.47;;;2.17;;
40629;SDS011;26329;40.388;-3.710;2023-07-28T10:09:38;8.15;;;3.90;;
40629;SDS011;26329;40.388;-3.710;2023-07-28T10:19:39;8.13;;;3.10;;
40629;SDS011;26329;40.388;-3.710;2023-07-28T10:29:40;8.38;;;3.50;;
40629;SDS011;26329;40.388;-3.710;2023-07-28T10:50:31;9.43;;;3.20;;
40629;SDS011;26329;40.388;-3.710;2023-07-28T11:00:32;8.20;;;4.53;;
40629;SDS011;26329;40.388;-3.710;2023-07-28T11:10:33;9.88;;;2.40;;
40629;SDS011;26329;40.388;-3.710;2023-07-28T11:20:35;7.43;;;2.20;;
40629;SDS011;26329;40.388;-3.710;2023-07-28T11:30:36;5.90;;;2.88;;
40629;SDS011;26329;40.388;-3.710;2023-07-28T11:40:42;4.30;;;2.38;;
40629;SDS011;26329;40.388;-3.710;2023-07-28T11:50:43;4.13;;;2.28;;
40629;SDS011;26329;40.388;-3.710;2023-07-28T12:00:45;6.85;;;2.40;;
40629;SDS011;26329;40.388;-3.710;2023-07-28T12:10:55;6.70;;;3.17;;
40629;SDS011;26329;40.388;-3.710;2023-07-28T12:20:56;3.55;;;2.42;;
40629;SDS011;26329;40.388;-3.710;2023-07-28T12:30:58;4.35;;;2.30;;
40629;SDS011;26329;40.388;-3.710;2023-07-28T12:40:59;8.32;;;2.35;;
40629;SDS011;26329;40.388;-3.710;2023-07-28T12:50:59;7.07;;;2.53;;
40629;SDS011;26329;40.388;-3.710;2023-07-28T13:01:00;5.00;;;2.33;;
40629;SDS011;26329;40.388;-3.710;2023-07-28T13:11:03;6.97;;;2.63;;
40629;SDS011;26329;40.388;-3.710;2023-07-28T13:21:04;2.92;;;2.28;;
40629;SDS011;26329;40.388;-3.710;2023-07-28T13:31:05;3.90;;;1.90;;
40629;SDS011;26329;40.388;-3.710;2023-07-28T13:41:05;5.63;;;2.15;;
40629;SDS011;26329;40.388;-3.710;2023-07-28T13:51:06;3.88;;;2.15;;
40629;SDS011;26329;40.388;-3.710;2023-07-28T14:01:07;4.63;;;2.03;;
40629;SDS011;26329;40.388;-3.710;2023-07-28T14:11:08;4.90;;;1.63;;
40629;SDS011;26329;40.388;-3.710;2023-07-28T14:21:09;4.65;;;1.90;;
40629;SDS011;26329;40.388;-3.710;2023-07-28T14:31:09;3.55;;;1.90;;
40629;SDS011;26329;40.388;-3.710;2023-07-28T14:41:10;3.67;;;2.10;;
40629;SDS011;26329;40.388;-3.710;2023-07-28T14:51:11;4.30;;;1.75;;
40629;SDS011;26329;40.388;-3.710;2023-07-28T15:01:12;1.60;;;1.50;;
40629;SDS011;26329;40.388;-3.710;2023-07-28T15:11:13;5.20;;;1.95;;
40629;SDS011;26329;40.388;-3.710;2023-07-28T15:21:14;5.28;;;2.33;;
40629;SDS011;26329;40.388;-3.710;2023-07-28T15:31:14;2.88;;;1.63;;
40629;SDS011;26329;40.388;-3.710;2023-07-28T15:41:15;3.17;;;1.52;;
40629;SDS011;26329;40.388;-3.710;2023-07-28T15:51:16;5.88;;;1.77;;
40629;SDS011;26329;40.388;-3.710;2023-07-28T16:01:17;1.90;;;1.67;;
40629;SDS011;26329;40.388;-3.710;2023-07-28T16:11:17;2.20;;;1.40;;
40629;SDS011;26329;40.388;-3.710;2023-07-28T16:21:20;5.20;;;1.38;;
40629;SDS011;26329;40.388;-3.710;2023-07-28T16:31:21;4.40;;;2.92;;
40629;SDS011;26329;40.388;-3.710;2023-07-28T16:41:22;3.65;;;1.52;;
40629;SDS011;26329;40.388;-3.710;2023-07-28T16:51:22;3.22;;;1.60;;
40629;SDS011;26329;40.388;-3.710;2023-07-28T17:01:23;3.58;;;1.80;;
40629;SDS011;26329;40.388;-3.710;2023-07-28T17:11:24;2.85;;;1.58;;
40629;SDS011;26329;40.388;-3.710;2023-07-28T17:21:25;5.05;;;2.20;;
40629;SDS011;26329;40.388;-3.710;2023-07-28T17:31:25;2.40;;;2.10;;
40629;SDS011;26329;40.388;-3.710;2023-07-28T17:41:26;6.72;;;2.35;;
40629;SDS011;26329;40.388;-3.710;2023-07-28T17:51:27;3.10;;;2.60;;
40629;SDS011;26329;40.388;-3.710;2023-07-28T18:01:28;8.57;;;3.10;;
40629;SDS011;26329;40.388;-3.710;2023-07-28T18:11:29;5.90;;;2.95;;
40629;SDS011;26329;40.388;-3.710;2023-07-28T18:21:29;3.85;;;2.60;;
40629;SDS011;26329;40.388;-3.710;2023-07-28T18:31:31;3.08;;;2.42;;
40629;SDS011;26329;40.388;-3.710;2023-07-28T18:41:32;6.80;;;3.92;;
40629;SDS011;26329;40.388;-3.710;2023-07-28T18:51:33;4.90;;;3.45;;
40629;SDS011;26329;40.388;-3.710;2023-07-28T19:01:34;5.32;;;3.03;;
40629;SDS011;26329;40.388;-3.710;2023-07-28T19:11:35;6.32;;;3.10;;
40629;SDS011;26329;40.388;-3.710;2023-07-28T19:21:36;4.95;;;3.28;;
40629;SDS011;26329;40.388;-3.710;2023-07-28T19:31:36;9.18;;;3.90;;
40629;SDS011;26329;40.388;-3.710;2023-07-28T19:41:37;4.90;;;3.95;;
40629;SDS011;26329;40.388;-3.710;2023-07-28T19:51:38;6.93;;;4.80;;
40629;SDS011;26329;40.388;-3.710;2023-07-28T20:01:39;8.02;;;4.50;;
40629;SDS011;26329;40.388;-3.710;2023-07-28T20:11:39;6.13;;;4.85;;
40629;SDS011;26329;40.388;-3.710;2023-07-28T20:21:40;7.40;;;5.00;;
40629;SDS011;26329;40.388;-3.710;2023-07-28T20:31:41;7.40;;;4.45;;
40629;SDS011;26329;40.388;-3.710;2023-07-28T20:41:42;6.82;;;5.13;;
40629;SDS011;26329;40.388;-3.710;2023-07-28T20:51:42;5.75;;;4.78;;
40629;SDS011;26329;40.388;-3.710;2023-07-28T21:01:43;5.57;;;3.88;;
40629;SDS011;26329;40.388;-3.710;2023-07-28T21:11:44;4.32;;;3.92;;
40629;SDS011;26329;40.388;-3.710;2023-07-28T21:21:45;7.05;;;3.83;;
40629;SDS011;26329;40.388;-3.710;2023-07-28T21:31:46;5.25;;;4.30;;
40629;SDS011;26329;40.388;-3.710;2023-07-28T21:41:46;6.97;;;4.43;;
40629;SDS011;26329;40.388;-3.710;2023-07-28T21:51:47;4.65;;;4.25;;
40629;SDS011;26329;40.388;-3.710;2023-07-28T22:01:48;10.18;;;3.65;;
40629;SDS011;26329;40.388;-3.710;2023-07-28T22:11:48;7.03;;;3.83;;
40629;SDS011;26329;40.388;-3.710;2023-07-28T22:21:49;5.20;;;3.95;;
40629;SDS011;26329;40.388;-3.710;2023-07-28T22:31:50;4.78;;;3.65;;
40629;SDS011;26329;40.388;-3.710;2023-07-28T22:41:51;5.57;;;3.97;;
40629;SDS011;26329;40.388;-3.710;2023-07-28T22:51:51;4.88;;;4.00;;
40629;SDS011;26329;40.388;-3.710;2023-07-28T23:01:52;6.72;;;3.95;;
40629;SDS011;26329;40.388;-3.710;2023-07-28T23:11:53;6.78;;;5.05;;
40629;SDS011;26329;40.388;-3.710;2023-07-28T23:21:53;4.35;;;3.95;;
40629;SDS011;26329;40.388;-3.710;2023-07-28T23:31:54;4.13;;;3.70;;
40629;SDS011;26329;40.388;-3.710;2023-07-28T23:41:55;5.55;;;4.45;;
40629;SDS011;26329;40.388;-3.710;2023-07-28T23:51:56;9.65;;;4.78;;
